createdAt,value
2019-06-20T00:04:51.870Z,101397.04
2019-06-20T00:09:53.685Z,101398.30
2019-06-20T00:14:56.665Z,101390.58
2019-06-20T00:19:58.717Z,101391.48
2019-06-20T00:25:05.910Z,101390.89
2019-06-20T00:30:08.487Z,101379.19
2019-06-20T00:35:12.028Z,101394.00
2019-06-20T00:40:15.564Z,101409.77
2019-06-20T00:45:18.449Z,101411.14
2019-06-20T00:50:20.151Z,101415.38
2019-06-20T00:55:24.935Z,101398.86
2019-06-20T01:00:30.327Z,101397.73
2019-06-20T01:05:32.843Z,101398.78
2019-06-20T01:10:39.928Z,101389.13
2019-06-20T01:15:43.165Z,101394.66
2019-06-20T01:20:46.408Z,101389.45
2019-06-20T01:25:51.000Z,101400.61
2019-06-20T01:30:54.198Z,101397.48
2019-06-20T01:35:57.307Z,101400.09
2019-06-20T01:41:06.259Z,101400.89
2019-06-20T01:46:08.396Z,101394.02
2019-06-20T01:51:11.938Z,101416.46
2019-06-20T01:56:16.035Z,101415.32
2019-06-20T02:01:17.886Z,101426.77
2019-06-20T02:06:19.950Z,101423.03
2019-06-20T02:11:21.676Z,101424.50
2019-06-20T02:16:28.202Z,101426.31
2019-06-20T02:21:32.755Z,101434.19
2019-06-20T02:26:34.604Z,101433.36
2019-06-20T02:31:36.318Z,101432.04
2019-06-20T02:36:40.550Z,101435.27
2019-06-20T02:41:42.820Z,101437.25
2019-06-20T02:46:46.439Z,101442.42
2019-06-20T02:51:49.865Z,101443.51
2019-06-20T02:56:55.707Z,101442.47
2019-06-20T03:01:57.707Z,101450.34
2019-06-20T03:07:00.716Z,101455.84
2019-06-20T03:12:05.048Z,101453.85
2019-06-20T03:17:09.608Z,101449.66
2019-06-20T03:22:12.597Z,101462.31
2019-06-20T03:27:14.644Z,101475.57
2019-06-20T03:32:17.884Z,101476.52
2019-06-20T03:37:19.591Z,101478.20
2019-06-20T03:42:21.456Z,101480.70
2019-06-20T03:47:24.363Z,101476.12
2019-06-20T03:52:26.215Z,101474.12
2019-06-20T03:57:28.608Z,101477.98
2019-06-20T04:02:33.470Z,101482.47
2019-06-20T04:07:36.106Z,101476.31
2019-06-20T04:12:40.421Z,101469.64
2019-06-20T04:17:42.791Z,101470.31
2019-06-20T04:22:44.481Z,101466.75
2019-06-20T04:27:46.385Z,101475.67
2019-06-20T04:32:53.699Z,101472.13
2019-06-20T04:37:59.193Z,101468.25
2019-06-20T04:43:01.310Z,101483.10
2019-06-20T04:48:03.178Z,101488.73
2019-06-20T04:53:06.577Z,101493.61
2019-06-20T04:58:11.831Z,101493.29
2019-06-20T05:03:15.155Z,101489.91
2019-06-20T05:08:18.395Z,101499.27
2019-06-20T05:13:24.012Z,101497.72
2019-06-20T05:18:25.753Z,101508.30
2019-06-20T05:23:30.804Z,101506.42
2019-06-20T05:28:32.595Z,101492.08
2019-06-20T05:33:39.402Z,101511.36
2019-06-20T05:38:41.253Z,101518.80
2019-06-20T05:43:45.947Z,101519.09
2019-06-20T05:48:47.668Z,101437.44
2019-06-20T05:53:51.693Z,101522.23
2019-06-20T05:58:53.260Z,101520.45
2019-06-20T06:03:56.424Z,101519.80
2019-06-20T06:08:59.072Z,101512.08
2019-06-20T06:14:00.894Z,101513.24
2019-06-20T06:19:07.588Z,101397.64
2019-06-20T06:24:10.496Z,101509.04
2019-06-20T06:29:14.004Z,101517.50
2019-06-20T06:34:21.875Z,101515.24
2019-06-20T06:39:22.887Z,101457.41
2019-06-20T06:44:24.795Z,101429.74
2019-06-20T06:49:26.682Z,101378.63
2019-06-20T06:54:30.606Z,101393.26
2019-06-20T06:59:34.600Z,101403.36
2019-06-20T07:04:38.158Z,101429.03
2019-06-20T07:09:40.194Z,101421.81
2019-06-20T07:14:42.940Z,101431.58
2019-06-20T07:19:47.262Z,101426.58
2019-06-20T07:24:49.242Z,101380.59
2019-06-20T07:29:51.027Z,101462.66
2019-06-20T07:34:52.836Z,101466.56
2019-06-20T07:39:57.203Z,101467.09
2019-06-20T07:45:01.542Z,101441.59
2019-06-20T07:50:09.577Z,101491.19
2019-06-20T07:55:11.836Z,101507.77
2019-06-20T08:00:14.132Z,101427.70
2019-06-20T08:05:16.834Z,101319.44
2019-06-20T08:10:22.590Z,101373.92
2019-06-20T08:15:29.699Z,101372.52
2019-06-20T08:20:33.936Z,101295.76
2019-06-20T08:25:39.929Z,101348.86
2019-06-20T08:30:42.015Z,101437.22
2019-06-20T08:35:43.817Z,101427.99
2019-06-20T08:40:47.802Z,101457.17
2019-06-20T08:45:52.422Z,101322.98
2019-06-20T08:50:58.531Z,101268.16
2019-06-20T08:56:03.204Z,101309.32
2019-06-20T09:06:09.832Z,101355.09
2019-06-20T09:11:20.220Z,101213.80
2019-06-20T09:16:27.144Z,101340.39
2019-06-20T09:21:32.239Z,101357.34
2019-06-20T09:26:35.689Z,101369.57
2019-06-20T09:31:40.210Z,101305.52
2019-06-20T09:36:44.988Z,101297.75
2019-06-20T09:41:48.327Z,101247.16
2019-06-20T09:46:52.882Z,101243.41
2019-06-20T09:51:56.668Z,101185.87
2019-06-20T09:56:58.653Z,101115.22
2019-06-20T10:02:00.464Z,101022.23
2019-06-20T10:07:04.114Z,101070.60
2019-06-20T10:12:08.561Z,101010.27
2019-06-20T10:17:10.572Z,101028.77
2019-06-20T10:22:13.590Z,100983.02
2019-06-20T10:27:15.442Z,100998.33
2019-06-20T10:32:23.867Z,100979.42
2019-06-20T10:37:24.657Z,101037.83
2019-06-20T10:42:31.350Z,101055.19
2019-06-20T10:47:36.086Z,101051.13
2019-06-20T10:52:41.017Z,101006.59
2019-06-20T10:57:44.550Z,100961.52
2019-06-20T11:02:49.170Z,100978.00
2019-06-20T11:07:51.269Z,101091.23
2019-06-20T11:12:55.993Z,101047.06
2019-06-20T11:17:57.188Z,100996.19
2019-06-20T11:23:01.221Z,101020.30
2019-06-20T11:28:05.857Z,100992.13
2019-06-20T11:33:08.137Z,101007.80
2019-06-20T11:38:12.257Z,101031.52
2019-06-20T11:43:14.079Z,100942.09
2019-06-20T11:48:17.155Z,100931.33
2019-06-20T11:53:19.495Z,100930.27
2019-06-20T11:58:23.513Z,100840.75
2019-06-20T12:03:28.609Z,100816.75
2019-06-20T12:08:35.321Z,100754.17
2019-06-20T12:13:40.410Z,100722.12
2019-06-20T12:18:45.185Z,100700.80
2019-06-20T12:23:48.987Z,100718.63
2019-06-20T12:28:55.466Z,100775.81
2019-06-20T12:33:59.360Z,100854.52
2019-06-20T12:39:01.765Z,100836.61
2019-06-20T12:44:04.681Z,100931.17
2019-06-20T12:49:07.274Z,100913.50
2019-06-20T12:54:09.085Z,100910.02
2019-06-20T12:59:11.217Z,100773.86
2019-06-20T13:04:16.205Z,100755.06
2019-06-20T13:09:20.148Z,100868.30
2019-06-20T13:14:22.175Z,100871.13
2019-06-20T13:19:24.265Z,100871.69
2019-06-20T13:24:28.575Z,100948.84
2019-06-20T13:29:34.462Z,101017.95
2019-06-20T13:34:41.240Z,101003.36
2019-06-20T13:39:47.742Z,101015.92
2019-06-20T13:44:49.847Z,100937.77
2019-06-20T13:49:52.330Z,100982.45
2019-06-20T13:54:59.015Z,101056.12
2019-06-20T14:00:03.811Z,101001.30
2019-06-20T14:05:08.132Z,101057.53
2019-06-20T14:10:10.166Z,101045.95
2019-06-20T14:15:13.282Z,101054.22
2019-06-20T14:20:18.239Z,100989.20
2019-06-20T14:25:23.014Z,101023.76
2019-06-20T14:30:28.545Z,101046.33
2019-06-20T14:35:30.411Z,101115.46
2019-06-20T14:40:32.237Z,101096.22
2019-06-20T14:45:38.121Z,101055.16
2019-06-20T14:50:40.078Z,101145.53
2019-06-20T14:55:44.245Z,101093.70
2019-06-20T15:00:49.792Z,101155.77
2019-06-20T15:05:52.676Z,101146.02
2019-06-20T15:10:55.837Z,101158.97
2019-06-20T15:16:05.057Z,101117.85
2019-06-20T15:21:09.410Z,101133.41
2019-06-20T15:26:14.130Z,101150.60
2019-06-20T15:31:16.884Z,101189.05
2019-06-20T15:36:20.723Z,101211.61
2019-06-20T15:41:23.306Z,101198.82
2019-06-20T15:46:25.421Z,101177.45
2019-06-20T15:51:30.142Z,101276.10
2019-06-20T15:56:33.941Z,101267.91
2019-06-20T16:01:39.116Z,101305.95
2019-06-20T16:06:42.428Z,101278.57
2019-06-20T16:11:50.561Z,101238.54
2019-06-20T16:16:54.435Z,101130.61
2019-06-20T16:21:58.565Z,101227.69
2019-06-20T16:27:05.056Z,101221.58
2019-06-20T16:32:12.809Z,101142.23
2019-06-20T16:37:14.943Z,101061.79
2019-06-20T16:42:22.279Z,101073.05
2019-06-20T16:47:24.889Z,101067.96
2019-06-20T16:52:30.440Z,101053.91
2019-06-20T16:57:32.228Z,100947.94
2019-06-20T17:02:37.327Z,100984.28
2019-06-20T17:07:41.710Z,101095.72
2019-06-20T17:12:47.187Z,101099.64
2019-06-20T17:17:51.651Z,101018.19
2019-06-20T17:22:59.242Z,101020.09
2019-06-20T17:28:03.929Z,101080.36
2019-06-20T17:33:06.591Z,101140.53
2019-06-20T17:38:08.455Z,101168.80
2019-06-20T17:43:10.261Z,101093.89
2019-06-20T17:48:13.861Z,101051.69
2019-06-20T17:53:15.642Z,101119.62
2019-06-20T17:58:23.278Z,101086.86
2019-06-20T18:03:27.196Z,101096.99
2019-06-20T18:08:28.886Z,101102.02
2019-06-20T18:13:34.605Z,101103.97
2019-06-20T18:18:36.443Z,101080.70
2019-06-20T18:23:38.553Z,101052.92
2019-06-20T18:28:40.295Z,101013.92
2019-06-20T18:33:42.233Z,101089.51
2019-06-20T18:38:46.155Z,101103.23
2019-06-20T18:43:53.068Z,101115.70
2019-06-20T18:48:57.981Z,101128.75
2019-06-20T18:54:03.508Z,101057.34
2019-06-20T18:59:05.328Z,101153.87
2019-06-20T19:04:08.331Z,101147.15
2019-06-20T19:09:10.128Z,101136.42
2019-06-20T19:14:15.072Z,101152.00
2019-06-20T19:19:22.069Z,101159.44
2019-06-20T19:24:24.461Z,101211.95
2019-06-20T19:29:26.859Z,101185.97
2019-06-20T19:34:28.696Z,101142.31
2019-06-20T19:39:32.057Z,101172.17
2019-06-20T19:44:34.005Z,101196.81
2019-06-20T19:49:38.873Z,101172.64
2019-06-20T19:54:43.674Z,101158.76
2019-06-20T19:59:46.323Z,101107.92
2019-06-20T20:04:48.735Z,101108.73
2019-06-20T20:09:50.506Z,101121.37
2019-06-20T20:14:57.134Z,101071.10
2019-06-20T20:19:59.269Z,101060.77
2019-06-20T20:25:04.770Z,100980.25
2019-06-20T20:30:07.130Z,100990.31
2019-06-20T20:35:09.594Z,100922.27
2019-06-20T20:40:11.615Z,100923.95
2019-06-20T20:45:19.815Z,100910.50
2019-06-20T20:50:24.392Z,100909.78
2019-06-20T20:55:26.251Z,100916.25
2019-06-20T21:00:35.399Z,100907.33
2019-06-20T21:05:50.668Z,100907.33
2019-06-20T21:10:43.939Z,100919.89
2019-06-20T21:15:46.399Z,100938.95
2019-06-20T21:20:50.906Z,100948.41
2019-06-20T21:25:53.580Z,100936.97
2019-06-20T21:30:58.899Z,100953.41
2019-06-20T21:36:08.440Z,100942.39
2019-06-20T21:41:07.289Z,100941.56
2019-06-20T21:46:09.451Z,100946.05
2019-06-20T21:51:11.520Z,100960.70
2019-06-20T21:56:13.650Z,100953.01
2019-06-20T22:01:18.922Z,101061.14
2019-06-20T22:06:24.288Z,101106.36
2019-06-20T22:11:28.307Z,101327.70
2019-06-20T22:16:37.542Z,101368.42
2019-06-20T22:21:39.334Z,101246.69
2019-06-20T22:26:41.299Z,101300.38
2019-06-20T22:31:43.102Z,101360.53
2019-06-20T22:36:44.924Z,101373.65
2019-06-20T22:41:47.995Z,101338.92
2019-06-20T22:46:49.796Z,101277.16
2019-06-20T22:51:52.220Z,101285.20
2019-06-20T22:56:56.672Z,101260.59
2019-06-20T23:01:59.389Z,101276.53
2019-06-20T23:07:01.306Z,101285.19
2019-06-20T23:12:05.168Z,101225.56
2019-06-20T23:17:07.302Z,101256.86
2019-06-20T23:22:11.037Z,101301.85
2019-06-20T23:27:14.439Z,101292.14
2019-06-20T23:32:18.266Z,101462.91
2019-06-20T23:37:21.657Z,101387.39
2019-06-20T23:42:23.621Z,101391.87
2019-06-20T23:47:32.377Z,101331.55
2019-06-20T23:52:36.612Z,101340.95
2019-06-20T23:57:40.609Z,101367.45
